Time;durP1;ratioP1;P1;durP2;ratioP2;P2;SDS_P1;SDS_P2;PMS_P1;PMS_P2;Temp;Humidity;BMP_temperature;BMP_pressure;BME280_temperature;BME280_humidity;BME280_pressure;Samples;Min_cycle;Max_cycle;Signal;HPM_P1;HPM_P2
2021/04/30 00:01:43;;;;;;;2.55;0.98;;;3.70;99.90;;;;;;4961499;28;20454;-66
2021/04/30 00:04:10;;;;;;;1.05;0.60;;;3.80;99.90;;;;;;4963244;28;20062;-64
2021/04/30 00:06:36;;;;;;;7.88;1.40;;;3.70;99.90;;;;;;4960267;28;20042;-65
2021/04/30 00:09:03;;;;;;;2.80;1.10;;;3.70;99.90;;;;;;4963208;28;20054;-64
2021/04/30 00:11:30;;;;;;;4.15;1.77;;;3.70;99.90;;;;;;4964489;28;20619;-63
2021/04/30 00:13:56;;;;;;;2.03;0.82;;;3.70;99.90;;;;;;4961220;28;20065;-62
2021/04/30 00:16:22;;;;;;;2.30;0.90;;;3.70;99.90;;;;;;4967430;28;20173;-63
2021/04/30 00:18:49;;;;;;;1.58;1.35;;;3.70;99.90;;;;;;4962542;28;20058;-64
2021/04/30 00:21:15;;;;;;;4.05;1.23;;;3.70;99.90;;;;;;4960052;28;20188;-62
2021/04/30 00:23:42;;;;;;;1.38;0.88;;;3.60;99.90;;;;;;4962004;28;20050;-62
2021/04/30 00:26:08;;;;;;;3.47;1.80;;;3.60;99.90;;;;;;4962990;28;20051;-62
2021/04/30 00:28:35;;;;;;;3.58;1.35;;;3.60;99.90;;;;;;4960880;28;20493;-65
2021/04/30 00:31:02;;;;;;;2.80;1.13;;;3.60;99.90;;;;;;4962216;28;20054;-65
2021/04/30 00:33:29;;;;;;;4.68;2.58;;;3.60;99.90;;;;;;4959718;28;20532;-63
2021/04/30 00:35:56;;;;;;;3.47;1.25;;;3.60;99.90;;;;;;4962672;28;20059;-66
2021/04/30 00:38:23;;;;;;;3.30;1.20;;;3.60;99.90;;;;;;4965408;28;20046;-62
2021/04/30 00:40:50;;;;;;;2.38;1.27;;;3.50;99.90;;;;;;4965479;28;20607;-63
2021/04/30 00:43:17;;;;;;;3.70;1.13;;;3.60;99.90;;;;;;4958648;28;20575;-67
2021/04/30 00:45:44;;;;;;;3.70;1.75;;;3.50;99.90;;;;;;4958051;28;20745;-63
2021/04/30 00:48:11;;;;;;;10.85;1.75;;;3.60;99.90;;;;;;4960416;28;20639;-64
2021/04/30 00:50:38;;;;;;;2.40;2.20;;;3.50;99.90;;;;;;4961692;28;20088;-63
2021/04/30 00:53:05;;;;;;;4.07;0.93;;;3.60;99.90;;;;;;4962061;28;20082;-63
2021/04/30 00:55:32;;;;;;;1.98;0.85;;;3.50;99.90;;;;;;4959955;28;20062;-64
2021/04/30 00:58:01;;;;;;;2.75;1.00;;;3.60;99.90;;;;;;4962841;28;20046;-64
2021/04/30 01:00:31;;;;;;;1.27;1.10;;;3.60;99.90;;;;;;4959435;28;20050;-66
2021/04/30 01:02:58;;;;;;;1.95;1.20;;;3.50;99.90;;;;;;4965398;28;20770;-63
2021/04/30 01:05:25;;;;;;;3.55;1.58;;;3.50;99.90;;;;;;4963000;28;20109;-63
2021/04/30 01:07:52;;;;;;;3.53;1.17;;;3.50;99.90;;;;;;4965493;28;20058;-64
2021/04/30 01:10:19;;;;;;;3.17;1.65;;;3.50;99.90;;;;;;4947699;28;20794;-65
2021/04/30 01:12:46;;;;;;;1.20;0.95;;;3.50;99.90;;;;;;4965740;28;20078;-66
2021/04/30 01:15:15;;;;;;;0.95;0.73;;;3.50;99.90;;;;;;4965238;28;20050;-64
2021/04/30 01:17:42;;;;;;;2.85;0.98;;;3.50;99.90;;;;;;4963614;28;20050;-65
2021/04/30 01:20:11;;;;;;;1.73;1.13;;;3.40;99.90;;;;;;4942377;28;20054;-62
2021/04/30 01:22:40;;;;;;;3.22;1.63;;;3.40;99.90;;;;;;4964047;28;20046;-66
2021/04/30 01:25:09;;;;;;;0.95;0.85;;;3.40;99.90;;;;;;4978821;28;20059;-64
2021/04/30 01:27:36;;;;;;;2.97;1.15;;;3.40;99.90;;;;;;4964074;28;20054;-62
2021/04/30 01:30:14;;;;;;;2.03;0.90;;;3.40;99.90;;;;;;4969491;28;20046;-63
2021/04/30 01:32:41;;;;;;;1.13;0.90;;;3.40;99.90;;;;;;4964856;28;20051;-64
2021/04/30 01:35:09;;;;;;;3.95;1.20;;;3.40;99.90;;;;;;4965711;28;20062;-63
2021/04/30 01:37:36;;;;;;;2.70;1.20;;;3.40;99.90;;;;;;4964360;28;20062;-66
2021/04/30 01:40:13;;;;;;;2.28;1.25;;;3.40;99.90;;;;;;4966966;28;20442;-62
2021/04/30 01:42:59;;;;;;;1.40;0.95;;;3.40;99.90;;;;;;4964258;28;20046;-67
2021/04/30 01:45:29;;;;;;;1.90;1.17;;;3.40;99.90;;;;;;4966477;28;20059;-65
2021/04/30 01:47:55;;;;;;;1.30;0.93;;;3.40;99.90;;;;;;4964446;28;20055;-66
2021/04/30 01:50:22;;;;;;;3.30;1.10;;;3.40;99.90;;;;;;4966507;28;20046;-63
2021/04/30 01:52:48;;;;;;;4.05;2.13;;;3.40;99.90;;;;;;4958782;28;20126;-64
2021/04/30 01:55:15;;;;;;;2.22;0.88;;;3.40;99.90;;;;;;4963064;28;20074;-63
2021/04/30 01:57:44;;;;;;;1.20;1.10;;;3.40;99.90;;;;;;4964361;28;20583;-64
2021/04/30 02:00:21;;;;;;;4.45;0.98;;;3.40;99.90;;;;;;4965699;28;20047;-64
2021/04/30 02:02:48;;;;;;;1.58;0.95;;;3.40;99.90;;;;;;4967230;28;20094;-61
2021/04/30 02:05:15;;;;;;;1.48;0.90;;;3.30;99.90;;;;;;4965933;28;20054;-62
2021/04/30 02:07:42;;;;;;;2.65;1.13;;;3.30;99.90;;;;;;4970117;28;20046;-65
2021/04/30 02:10:24;;;;;;;1.95;0.75;;;3.30;99.90;;;;;;4963403;28;20049;-62
2021/04/30 02:12:52;;;;;;;1.10;1.00;;;3.30;99.90;;;;;;4962996;28;20106;-62
2021/04/30 02:15:22;;;;;;;3.05;1.50;;;3.30;99.90;;;;;;4958820;28;20387;-63
2021/04/30 02:17:48;;;;;;;3.83;1.33;;;3.40;99.90;;;;;;4966180;28;20061;-66
2021/04/30 02:20:16;;;;;;;1.90;0.88;;;3.40;99.90;;;;;;4961784;28;20102;-64
2021/04/30 02:22:43;;;;;;;3.38;1.30;;;3.40;99.90;;;;;;4964618;28;20310;-63
2021/04/30 02:25:11;;;;;;;7.22;1.70;;;3.40;99.90;;;;;;4963701;28;20054;-63
2021/04/30 02:27:38;;;;;;;1.48;1.35;;;3.40;99.90;;;;;;4963981;28;20043;-63
2021/04/30 02:30:08;;;;;;;1.48;1.05;;;3.30;99.90;;;;;;4962740;28;20046;-64
2021/04/30 02:32:35;;;;;;;1.48;0.82;;;3.30;99.90;;;;;;4965363;28;20051;-62
2021/04/30 02:35:04;;;;;;;3.40;1.30;;;3.40;99.90;;;;;;4944734;28;20078;-64
2021/04/30 02:37:31;;;;;;;7.60;1.13;;;3.40;99.90;;;;;;4961638;28;20050;-62
2021/04/30 02:39:57;;;;;;;1.60;1.30;;;3.40;99.90;;;;;;4966487;28;20063;-64
2021/04/30 02:42:24;;;;;;;1.25;1.10;;;3.40;99.90;;;;;;4958630;28;20539;-65
2021/04/30 02:44:50;;;;;;;2.97;1.15;;;3.40;99.90;;;;;;4960718;28;20070;-66
2021/04/30 02:47:17;;;;;;;2.22;1.17;;;3.40;99.90;;;;;;4960928;28;20097;-62
2021/04/30 02:49:47;;;;;;;2.47;1.02;;;3.40;99.90;;;;;;4963653;28;20051;-63
2021/04/30 02:52:17;;;;;;;0.88;0.60;;;3.40;99.90;;;;;;4963652;28;20086;-63
2021/04/30 02:54:44;;;;;;;2.47;1.10;;;3.40;99.90;;;;;;4961571;28;20054;-64
2021/04/30 02:57:13;;;;;;;1.48;1.08;;;3.50;99.90;;;;;;4965198;28;20138;-64
2021/04/30 02:59:40;;;;;;;2.33;0.98;;;3.50;99.90;;;;;;4958641;28;20046;-62
2021/04/30 03:02:06;;;;;;;1.88;1.08;;;3.50;99.90;;;;;;4965618;28;20051;-63
2021/04/30 03:04:53;;;;;;;2.38;1.02;;;3.50;99.90;;;;;;4963672;28;20897;-65
2021/04/30 03:07:19;;;;;;;3.63;1.10;;;3.50;99.90;;;;;;4962864;28;20449;-66
2021/04/30 03:09:46;;;;;;;2.85;1.20;;;3.50;99.90;;;;;;4963778;28;20050;-62
2021/04/30 03:12:31;;;;;;;2.45;1.00;;;3.50;99.90;;;;;;4965316;28;20069;-63
2021/04/30 03:14:57;;;;;;;1.48;0.85;;;3.60;99.90;;;;;;4960334;28;20615;-64
2021/04/30 03:17:23;;;;;;;5.72;1.30;;;3.60;99.90;;;;;;4964640;28;20049;-63
2021/04/30 03:19:50;;;;;;;1.98;1.08;;;3.60;99.90;;;;;;4962702;28;20058;-65
2021/04/30 03:22:16;;;;;;;2.40;0.82;;;3.60;99.90;;;;;;4963121;28;20174;-65
2021/04/30 03:24:43;;;;;;;1.45;1.33;;;3.70;99.90;;;;;;4963013;28;20338;-64
2021/04/30 03:27:09;;;;;;;6.10;2.10;;;3.70;99.90;;;;;;4962614;28;20458;-62
2021/04/30 03:29:35;;;;;;;3.08;1.48;;;3.70;99.90;;;;;;4961825;28;21232;-62
2021/04/30 03:32:02;;;;;;;8.65;1.48;;;3.70;99.90;;;;;;4958515;28;20453;-62
2021/04/30 03:34:29;;;;;;;2.30;0.98;;;3.80;99.90;;;;;;4959685;28;20039;-62
2021/04/30 03:36:56;;;;;;;2.55;0.82;;;3.80;99.90;;;;;;4969758;28;20086;-65
2021/04/30 03:39:22;;;;;;;2.58;0.80;;;3.80;99.90;;;;;;4962564;28;20042;-63
2021/04/30 03:41:49;;;;;;;1.60;0.98;;;3.80;99.90;;;;;;4951958;28;20057;-66
2021/04/30 03:44:15;;;;;;;1.83;1.20;;;3.90;99.90;;;;;;4944411;28;20850;-62
2021/04/30 03:46:42;;;;;;;1.48;0.95;;;3.90;99.90;;;;;;4948641;28;20058;-66
2021/04/30 03:49:08;;;;;;;2.70;1.95;;;3.80;99.90;;;;;;4959832;28;20129;-64
2021/04/30 03:51:35;;;;;;;1.65;1.15;;;3.90;99.90;;;;;;4961286;28;21052;-63
2021/04/30 03:54:02;;;;;;;4.55;0.90;;;3.90;99.90;;;;;;4960359;28;20069;-63
2021/04/30 03:56:31;;;;;;;3.83;1.90;;;3.90;99.90;;;;;;4962987;28;20054;-64
2021/04/30 03:58:58;;;;;;;1.23;0.85;;;3.90;99.90;;;;;;4961677;28;20583;-62
2021/04/30 04:01:25;;;;;;;2.97;1.20;;;4.00;99.90;;;;;;4959143;28;20129;-64
2021/04/30 04:03:53;;;;;;;3.05;1.38;;;4.00;99.90;;;;;;4961541;28;20123;-62
2021/04/30 04:06:23;;;;;;;3.42;1.50;;;4.00;99.90;;;;;;4959469;28;20087;-64
2021/04/30 04:08:50;;;;;;;4.47;1.20;;;4.10;99.90;;;;;;4960556;28;20047;-62
2021/04/30 04:11:16;;;;;;;1.77;1.20;;;4.10;99.90;;;;;;4945476;28;20046;-64
2021/04/30 04:13:43;;;;;;;8.25;1.80;;;4.10;99.90;;;;;;4960976;28;20548;-65
2021/04/30 04:16:10;;;;;;;9.60;1.40;;;4.20;99.90;;;;;;4962005;28;20122;-63
2021/04/30 04:18:36;;;;;;;2.28;1.20;;;4.20;99.90;;;;;;4962388;28;20081;-62
2021/04/30 04:21:03;;;;;;;2.30;1.10;;;4.20;99.90;;;;;;4962258;28;20150;-62
2021/04/30 04:23:30;;;;;;;1.80;1.17;;;4.20;99.90;;;;;;4958349;28;20043;-65
2021/04/30 04:26:15;;;;;;;2.63;1.20;;;4.30;99.90;;;;;;4960533;28;20105;-65
2021/04/30 04:28:41;;;;;;;3.25;1.38;;;4.40;99.90;;;;;;4957473;28;20134;-65
2021/04/30 04:31:08;;;;;;;23.17;2.45;;;4.40;99.90;;;;;;4965786;28;20582;-62
2021/04/30 04:33:34;;;;;;;2.65;1.30;;;4.40;99.90;;;;;;4962608;28;20568;-63
2021/04/30 04:36:01;;;;;;;2.30;1.65;;;4.40;99.90;;;;;;4963564;28;20050;-64
2021/04/30 04:38:31;;;;;;;4.60;1.65;;;4.50;99.90;;;;;;4961590;28;20499;-64
2021/04/30 04:40:58;;;;;;;2.33;0.88;;;4.50;99.90;;;;;;4964498;28;20062;-62
2021/04/30 04:43:24;;;;;;;3.58;1.25;;;4.60;99.90;;;;;;4957712;28;20501;-66
2021/04/30 04:45:51;;;;;;;3.95;1.27;;;4.60;99.90;;;;;;4962625;28;20141;-63
2021/04/30 04:48:18;;;;;;;1.75;1.25;;;4.60;99.90;;;;;;4964486;28;20046;-64
2021/04/30 04:50:44;;;;;;;3.50;1.50;;;4.70;99.90;;;;;;4962575;28;20435;-64
2021/04/30 04:53:23;;;;;;;3.67;0.85;;;4.70;99.90;;;;;;4958363;28;20431;-63
2021/04/30 04:56:06;;;;;;;1.92;1.38;;;4.70;99.90;;;;;;4966210;28;20043;-63
2021/04/30 04:58:33;;;;;;;3.95;1.30;;;4.80;99.90;;;;;;4959381;28;20138;-64
2021/04/30 05:01:00;;;;;;;1.23;1.13;;;4.80;99.90;;;;;;4960645;28;20062;-64
2021/04/30 05:03:27;;;;;;;3.47;1.50;;;4.80;99.90;;;;;;4958392;28;20547;-64
2021/04/30 05:05:54;;;;;;;1.95;1.48;;;4.90;99.90;;;;;;4962983;28;20093;-62
2021/04/30 05:08:20;;;;;;;2.40;1.27;;;4.90;99.90;;;;;;4960653;28;20047;-66
2021/04/30 05:10:47;;;;;;;2.30;1.00;;;4.90;99.90;;;;;;4960983;28;20054;-64
2021/04/30 05:13:14;;;;;;;1.85;1.35;;;5.00;99.90;;;;;;4958108;28;20173;-65
2021/04/30 05:15:49;;;;;;;1.67;1.10;;;5.00;99.90;;;;;;4955858;28;20069;-64
2021/04/30 05:18:16;;;;;;;2.08;1.30;;;5.10;99.90;;;;;;4958923;28;20483;-63
2021/04/30 05:20:42;;;;;;;2.13;1.00;;;5.10;99.90;;;;;;4961446;28;20130;-62
2021/04/30 05:23:09;;;;;;;1.20;0.70;;;5.10;99.90;;;;;;4961764;28;20069;-65
2021/04/30 05:25:35;;;;;;;2.88;1.25;;;5.10;99.90;;;;;;4962463;28;20063;-62
2021/04/30 05:28:02;;;;;;;3.88;1.10;;;5.20;99.90;;;;;;4961312;28;20055;-63
2021/04/30 05:30:28;;;;;;;2.05;1.08;;;5.20;99.90;;;;;;4961619;28;20131;-64
2021/04/30 05:32:55;;;;;;;9.13;1.23;;;5.30;99.90;;;;;;4958662;28;20051;-65
2021/04/30 05:35:21;;;;;;;7.32;1.80;;;5.40;99.90;;;;;;4957759;28;20046;-64
2021/04/30 05:37:48;;;;;;;2.03;0.98;;;5.40;99.90;;;;;;4956661;28;20062;-64
2021/04/30 05:40:14;;;;;;;1.48;1.02;;;5.40;99.90;;;;;;4961288;28;20043;-68
2021/04/30 05:42:41;;;;;;;3.25;1.30;;;5.50;99.90;;;;;;4963111;28;20118;-64
2021/04/30 05:45:10;;;;;;;1.08;0.95;;;5.50;99.90;;;;;;4960630;28;20051;-67
2021/04/30 05:47:37;;;;;;;4.97;3.17;;;5.50;99.90;;;;;;4962074;28;20077;-63
2021/04/30 05:50:06;;;;;;;2.13;1.02;;;5.60;99.90;;;;;;4964568;28;20489;-67
2021/04/30 05:52:32;;;;;;;1.75;1.00;;;5.60;99.90;;;;;;4962134;28;20054;-64
2021/04/30 05:55:00;;;;;;;3.47;1.00;;;5.70;99.90;;;;;;4941489;28;20051;-63
2021/04/30 05:57:46;;;;;;;1.75;0.68;;;5.70;99.90;;;;;;4183276;28;10000813;-64
2021/04/30 06:00:14;;;;;;;5.03;1.17;;;5.70;99.90;;;;;;1709275;28;10002014;-64
2021/04/30 06:02:42;;;;;;;4.05;1.20;;;5.60;99.90;;;;;;4969211;28;20057;-65
2021/04/30 06:05:09;;;;;;;1.98;0.90;;;5.60;99.90;;;;;;4947419;28;20063;-65
2021/04/30 06:07:36;;;;;;;11.43;1.20;;;5.60;99.90;;;;;;4964047;28;20054;-63
2021/04/30 06:10:04;;;;;;;5.38;1.25;;;5.70;99.90;;;;;;4966082;28;20059;-64
2021/04/30 06:12:31;;;;;;;1.10;0.80;;;5.70;99.90;;;;;;4965395;28;20050;-65
2021/04/30 06:14:58;;;;;;;4.05;0.80;;;5.70;99.90;;;;;;4962832;28;20125;-64
2021/04/30 06:17:24;;;;;;;2.17;0.80;;;5.80;99.90;;;;;;4964112;28;20059;-66
2021/04/30 06:19:51;;;;;;;4.25;0.85;;;5.90;99.90;;;;;;4963432;28;20155;-63
2021/04/30 06:22:18;;;;;;;3.30;1.00;;;6.00;99.90;;;;;;4949357;28;20055;-67
2021/04/30 06:24:45;;;;;;;1.25;0.80;;;6.10;99.90;;;;;;4963942;28;20055;-64
2021/04/30 06:27:11;;;;;;;3.70;1.17;;;6.20;99.90;;;;;;4963531;28;20042;-67
2021/04/30 06:29:37;;;;;;;3.50;0.93;;;6.20;99.90;;;;;;4960455;28;20078;-64
2021/04/30 06:32:04;;;;;;;3.45;0.77;;;6.30;99.90;;;;;;4964916;28;20053;-66
2021/04/30 06:34:31;;;;;;;2.30;0.95;;;6.30;99.90;;;;;;4964712;28;20062;-63
2021/04/30 06:36:58;;;;;;;4.28;1.17;;;6.40;99.90;;;;;;4962552;28;20555;-65
2021/04/30 06:39:24;;;;;;;1.25;0.82;;;6.40;99.90;;;;;;4962639;28;20054;-67
2021/04/30 06:41:51;;;;;;;1.73;0.80;;;6.40;99.90;;;;;;4964908;28;20061;-65
2021/04/30 06:44:18;;;;;;;4.43;0.82;;;6.50;99.90;;;;;;4963474;28;20764;-67
2021/04/30 06:46:45;;;;;;;1.08;0.50;;;6.60;99.90;;;;;;4962210;28;20055;-64
2021/04/30 06:49:12;;;;;;;2.88;0.60;;;6.70;99.90;;;;;;4944435;28;20520;-63
2021/04/30 06:51:38;;;;;;;4.47;1.02;;;6.70;99.50;;;;;;4960797;28;20608;-64
2021/04/30 06:54:04;;;;;;;2.25;0.65;;;6.80;99.80;;;;;;4964864;28;20087;-62
2021/04/30 06:56:31;;;;;;;0.47;0.47;;;6.80;99.40;;;;;;4960968;28;20042;-63
2021/04/30 06:58:58;;;;;;;1.67;0.65;;;6.80;99.90;;;;;;4963116;28;20125;-66
2021/04/30 07:01:25;;;;;;;2.33;1.15;;;6.80;99.10;;;;;;4959542;28;20059;-64
2021/04/30 07:03:52;;;;;;;0.90;0.50;;;6.80;96.20;;;;;;4962865;28;20047;-67
2021/04/30 07:06:20;;;;;;;1.75;0.40;;;6.70;96.70;;;;;;4961678;28;20047;-65
2021/04/30 07:08:47;;;;;;;1.63;0.75;;;6.70;97.30;;;;;;4961826;28;20501;-62
2021/04/30 07:11:14;;;;;;;2.63;0.63;;;6.70;98.10;;;;;;4963912;28;20058;-63
2021/04/30 07:13:40;;;;;;;0.88;0.50;;;6.80;98.70;;;;;;4962327;28;20149;-63
2021/04/30 07:16:07;;;;;;;1.48;0.65;;;6.90;98.90;;;;;;4963728;28;20520;-64
2021/04/30 07:18:33;;;;;;;2.75;1.08;;;7.00;99.20;;;;;;4965058;28;20069;-64
2021/04/30 07:21:01;;;;;;;5.53;0.52;;;7.00;99.00;;;;;;4964483;28;20050;-62
2021/04/30 07:23:28;;;;;;;0.90;0.57;;;7.10;99.90;;;;;;4962876;28;20042;-64
2021/04/30 07:25:55;;;;;;;1.55;0.93;;;7.00;99.90;;;;;;4963929;28;20109;-66
2021/04/30 07:28:23;;;;;;;2.88;0.77;;;6.90;99.90;;;;;;4963272;28;20719;-62
2021/04/30 07:30:50;;;;;;;0.82;0.80;;;6.80;99.90;;;;;;4963759;28;20490;-64
2021/04/30 07:33:17;;;;;;;1.55;1.08;;;6.60;99.90;;;;;;4961553;28;20043;-63
2021/04/30 07:35:43;;;;;;;2.42;0.88;;;6.60;99.90;;;;;;4964819;28;20634;-64
2021/04/30 07:38:12;;;;;;;2.35;1.10;;;6.60;99.90;;;;;;4963429;28;20054;-63
2021/04/30 07:40:40;;;;;;;1.98;0.77;;;6.60;99.90;;;;;;4964021;28;20046;-62
2021/04/30 07:43:08;;;;;;;1.95;0.80;;;6.60;99.90;;;;;;4962136;28;20425;-62
2021/04/30 07:45:36;;;;;;;4.60;2.13;;;6.60;99.90;;;;;;4961834;28;20055;-62
2021/04/30 07:48:05;;;;;;;;;;;6.50;99.90;;;;;;4963318;28;20097;-62
2021/04/30 07:50:33;;;;;;;0.98;0.77;;;6.50;99.90;;;;;;4963776;28;20380;-64
2021/04/30 07:52:59;;;;;;;2.33;1.00;;;6.50;99.90;;;;;;4962917;28;20054;-65
2021/04/30 07:55:26;;;;;;;3.22;0.63;;;6.50;99.90;;;;;;4961976;28;20138;-63
2021/04/30 07:57:52;;;;;;;4.18;0.95;;;6.60;99.90;;;;;;4960991;28;20506;-66
2021/04/30 08:00:19;;;;;;;3.08;0.98;;;6.50;99.90;;;;;;4946449;28;20105;-62
2021/04/30 08:02:49;;;;;;;1.60;0.98;;;6.50;99.90;;;;;;4962422;28;20114;-63
2021/04/30 08:05:16;;;;;;;3.45;1.50;;;6.40;99.90;;;;;;4960191;28;20042;-65
2021/04/30 08:07:42;;;;;;;1.50;0.70;;;6.40;99.90;;;;;;4961094;28;20058;-64
2021/04/30 08:10:11;;;;;;;1.35;0.70;;;6.40;99.90;;;;;;4965571;28;20065;-63
2021/04/30 08:12:38;;;;;;;4.78;1.52;;;6.30;99.90;;;;;;4962221;28;20353;-62
2021/04/30 08:15:06;;;;;;;1.77;1.38;;;6.40;99.90;;;;;;4965751;28;20050;-63
2021/04/30 08:17:32;;;;;;;1.05;0.90;;;6.40;99.90;;;;;;4963386;28;20055;-63
2021/04/30 08:19:59;;;;;;;3.85;1.35;;;6.40;99.90;;;;;;4966935;28;20132;-62
2021/04/30 08:22:27;;;;;;;2.65;1.23;;;6.30;99.90;;;;;;4962584;28;20039;-64
2021/04/30 08:24:54;;;;;;;4.22;0.77;;;6.30;99.90;;;;;;4963307;28;20105;-62
2021/04/30 08:27:22;;;;;;;3.70;0.60;;;6.40;99.90;;;;;;4960423;28;20366;-65
2021/04/30 08:29:49;;;;;;;2.10;0.73;;;6.40;99.90;;;;;;4962285;28;20429;-65
2021/04/30 08:32:17;;;;;;;6.20;1.02;;;6.40;99.90;;;;;;4961815;28;20067;-63
2021/04/30 08:34:44;;;;;;;2.47;0.88;;;6.40;99.90;;;;;;4964943;28;20050;-65
2021/04/30 08:37:12;;;;;;;2.80;0.70;;;6.30;99.90;;;;;;4962869;28;20046;-66
2021/04/30 08:39:39;;;;;;;1.73;0.95;;;6.40;99.90;;;;;;4968707;28;20069;-63
2021/04/30 08:42:06;;;;;;;3.67;1.00;;;6.40;99.90;;;;;;4961071;28;20046;-65
2021/04/30 08:44:38;;;;;;;1.05;0.50;;;6.40;99.90;;;;;;4962473;28;20047;-66
2021/04/30 08:47:06;;;;;;;3.70;0.82;;;6.40;99.90;;;;;;4962840;28;20157;-64
2021/04/30 08:49:33;;;;;;;4.50;1.13;;;6.40;99.90;;;;;;4963475;28;20050;-64
2021/04/30 08:51:59;;;;;;;2.30;1.23;;;6.50;99.90;;;;;;4961729;28;20051;-66
2021/04/30 08:54:27;;;;;;;3.38;1.15;;;6.50;99.90;;;;;;4963081;28;20134;-64
2021/04/30 08:57:00;;;;;;;1.08;0.77;;;6.50;99.90;;;;;;4961007;28;20503;-63
2021/04/30 08:59:28;;;;;;;2.90;1.25;;;6.50;99.90;;;;;;4961615;28;20053;-62
2021/04/30 09:01:55;;;;;;;3.75;0.68;;;6.50;99.90;;;;;;4961481;28;20054;-62
2021/04/30 09:04:23;;;;;;;1.70;0.93;;;6.50;99.90;;;;;;4963807;28;20747;-63
2021/04/30 09:06:49;;;;;;;2.55;1.00;;;6.50;99.90;;;;;;4960983;28;20062;-63
2021/04/30 09:09:19;;;;;;;1.88;1.08;;;6.50;99.90;;;;;;4962012;28;20062;-63
2021/04/30 09:11:47;;;;;;;4.15;0.70;;;6.50;99.90;;;;;;4961456;28;20113;-64
2021/04/30 09:14:32;;;;;;;2.58;1.20;;;6.50;99.90;;;;;;4961037;28;20113;-64
2021/04/30 09:17:15;;;;;;;2.10;0.93;;;6.60;99.90;;;;;;4961917;28;20051;-64
2021/04/30 09:19:51;;;;;;;5.15;0.65;;;6.60;99.90;;;;;;4959880;28;20133;-63
2021/04/30 09:22:26;;;;;;;2.97;0.98;;;6.80;99.90;;;;;;4965562;28;20055;-65
2021/04/30 09:25:05;;;;;;;2.45;1.08;;;6.70;99.90;;;;;;4964456;28;20062;-62
2021/04/30 09:27:39;;;;;;;3.20;0.90;;;6.80;99.90;;;;;;4958312;28;20109;-62
2021/04/30 09:30:29;;;;;;;5.45;1.25;;;6.80;99.90;;;;;;4963218;28;20074;-62
2021/04/30 09:33:11;;;;;;;2.28;0.68;;;6.80;99.90;;;;;;4968217;28;20571;-66
2021/04/30 09:35:40;;;;;;;5.88;1.10;;;6.70;99.90;;;;;;4964432;28;20162;-63
2021/04/30 09:38:23;;;;;;;2.05;0.70;;;6.70;99.90;;;;;;4965487;28;20439;-63
2021/04/30 09:41:01;;;;;;;1.63;0.63;;;6.60;99.90;;;;;;4964192;28;20062;-62
2021/04/30 09:43:50;;;;;;;1.55;0.90;;;6.60;99.90;;;;;;4961613;28;20600;-65
2021/04/30 09:46:30;;;;;;;6.37;1.07;;;6.60;99.90;;;;;;4964194;28;20073;-63
2021/04/30 09:49:04;;;;;;;1.35;1.00;;;6.70;99.90;;;;;;4965058;28;20129;-60
2021/04/30 09:51:51;;;;;;;0.68;0.63;;;6.70;99.90;;;;;;4968596;28;20055;-63
2021/04/30 09:54:28;;;;;;;2.95;0.90;;;6.70;99.90;;;;;;4965822;28;20043;-64
2021/04/30 09:57:19;;;;;;;1.98;0.90;;;6.80;99.90;;;;;;4962151;28;20082;-65
2021/04/30 09:59:55;;;;;;;1.33;1.23;;;6.80;99.90;;;;;;4960286;28;20062;-65
2021/04/30 10:02:29;;;;;;;2.85;0.57;;;6.80;99.90;;;;;;4964930;28;20050;-63
2021/04/30 10:04:58;;;;;;;0.90;0.85;;;6.90;99.90;;;;;;4967158;28;20054;-65
2021/04/30 10:07:33;;;;;;;4.75;1.67;;;6.90;99.90;;;;;;4961622;28;20054;-65
2021/04/30 10:10:08;;;;;;;3.05;1.02;;;6.80;99.90;;;;;;4966912;28;20049;-63
2021/04/30 10:12:36;;;;;;;0.55;0.38;;;6.70;99.90;;;;;;4963379;28;20051;-63
2021/04/30 10:15:03;;;;;;;1.35;0.88;;;6.80;99.90;;;;;;4966276;28;20057;-63
2021/04/30 10:17:30;;;;;;;2.83;1.20;;;6.80;99.90;;;;;;4961253;28;20147;-64
2021/04/30 10:19:56;;;;;;;5.20;1.10;;;7.00;99.90;;;;;;4964734;28;20054;-63
2021/04/30 10:22:25;;;;;;;1.27;0.98;;;7.00;99.90;;;;;;4963065;28;20051;-65
2021/04/30 10:25:17;;;;;;;1.35;0.40;;;7.00;99.90;;;;;;4961637;28;20058;-64
2021/04/30 10:27:49;;;;;;;4.30;0.60;;;7.00;99.90;;;;;;4959079;28;20077;-62
2021/04/30 10:30:45;;;;;;;4.40;0.90;;;7.00;99.90;;;;;;4965194;28;20062;-63
2021/04/30 10:33:12;;;;;;;4.22;1.35;;;7.00;99.90;;;;;;4961681;28;20054;-65
2021/04/30 10:35:45;;;;;;;1.67;0.70;;;7.10;99.90;;;;;;4962135;28;20473;-67
2021/04/30 10:38:18;;;;;;;4.35;0.95;;;7.10;99.90;;;;;;4961237;28;20059;-66
2021/04/30 10:40:51;;;;;;;2.33;0.55;;;7.00;99.90;;;;;;4966201;28;20047;-66
2021/04/30 10:43:20;;;;;;;1.35;0.77;;;7.10;99.90;;;;;;4942280;28;20564;-65
2021/04/30 10:46:02;;;;;;;0.60;0.60;;;6.90;99.90;;;;;;4963595;28;20420;-66
2021/04/30 10:48:30;;;;;;;2.92;0.95;;;7.10;99.90;;;;;;4963134;28;20055;-67
2021/04/30 10:51:12;;;;;;;1.90;0.95;;;7.00;99.90;;;;;;4963889;28;20146;-69
2021/04/30 10:53:40;;;;;;;3.50;0.95;;;7.10;99.90;;;;;;4958858;28;20508;-66
2021/04/30 10:56:33;;;;;;;4.50;0.95;;;7.20;99.90;;;;;;4963031;28;20051;-65
2021/04/30 10:59:00;;;;;;;3.67;0.80;;;7.10;99.90;;;;;;4959454;28;20047;-65
2021/04/30 11:01:33;;;;;;;3.47;1.10;;;7.20;99.90;;;;;;4964775;28;20066;-64
2021/04/30 11:04:26;;;;;;;1.25;0.98;;;7.10;99.90;;;;;;4962062;28;20137;-67
2021/04/30 11:06:53;;;;;;;1.08;0.93;;;7.20;99.90;;;;;;4960631;28;20058;-66
2021/04/30 11:09:30;;;;;;;3.17;1.23;;;7.20;99.90;;;;;;4959222;28;20047;-68
2021/04/30 11:12:00;;;;;;;2.92;1.35;;;7.00;99.90;;;;;;4964473;28;20054;-67
2021/04/30 11:14:36;;;;;;;0.80;0.73;;;7.00;99.90;;;;;;4963840;28;20054;-67
2021/04/30 11:17:05;;;;;;;1.60;0.77;;;7.10;99.90;;;;;;4964088;28;20050;-65
2021/04/30 11:19:44;;;;;;;3.40;1.23;;;7.10;99.90;;;;;;4966328;28;20065;-67
2021/04/30 11:22:14;;;;;;;0.57;0.52;;;7.30;99.90;;;;;;4963592;28;20069;-66
2021/04/30 11:24:46;;;;;;;0.93;0.80;;;7.50;99.90;;;;;;4965347;28;20069;-64
2021/04/30 11:27:21;;;;;;;0.95;0.65;;;7.60;99.90;;;;;;4962840;28;20061;-67
2021/04/30 11:29:48;;;;;;;1.13;0.80;;;7.60;99.90;;;;;;4964563;28;20050;-66
2021/04/30 11:32:26;;;;;;;3.05;1.00;;;7.50;99.90;;;;;;4961315;28;20051;-70
2021/04/30 11:35:02;;;;;;;0.82;0.73;;;7.60;99.90;;;;;;4964887;28;20055;-68
2021/04/30 11:37:33;;;;;;;1.75;1.23;;;7.50;99.90;;;;;;4956304;28;20156;-64
2021/04/30 11:40:20;;;;;;;1.05;0.50;;;7.60;99.90;;;;;;4945245;28;20046;-68
2021/04/30 11:42:47;;;;;;;1.77;0.77;;;7.70;99.90;;;;;;4962273;28;20059;-65
2021/04/30 11:45:13;;;;;;;1.27;0.70;;;7.50;99.90;;;;;;4963224;28;20141;-69
2021/04/30 11:47:41;;;;;;;2.05;0.55;;;7.40;99.90;;;;;;4960364;28;20827;-64
2021/04/30 11:50:15;;;;;;;0.98;0.60;;;7.40;99.90;;;;;;4963370;28;20049;-66
2021/04/30 11:52:43;;;;;;;3.30;0.80;;;7.50;99.90;;;;;;4959596;28;20042;-64
2021/04/30 11:55:13;;;;;;;3.55;0.55;;;7.40;99.90;;;;;;4965002;28;20051;-63
2021/04/30 11:57:40;;;;;;;1.20;0.57;;;7.50;99.90;;;;;;4956423;28;20055;-63
2021/04/30 12:00:23;;;;;;;1.15;0.88;;;7.50;99.90;;;;;;4962308;28;20043;-66
2021/04/30 12:03:06;;;;;;;1.33;0.70;;;7.60;99.90;;;;;;4960398;28;20058;-66
2021/04/30 12:05:34;;;;;;;2.95;1.25;;;7.60;99.90;;;;;;4960584;28;20050;-64
2021/04/30 12:08:01;;;;;;;1.10;0.77;;;7.60;99.90;;;;;;4960921;28;20047;-65
2021/04/30 12:10:30;;;;;;;1.85;0.57;;;7.60;99.90;;;;;;4961174;28;20055;-66
2021/04/30 12:12:56;;;;;;;1.40;0.77;;;7.50;99.90;;;;;;4961509;28;20098;-64
2021/04/30 12:15:38;;;;;;;1.17;0.65;;;7.50;99.90;;;;;;4959871;28;20058;-67
2021/04/30 12:18:05;;;;;;;7.68;1.10;;;7.60;99.90;;;;;;4944959;28;20050;-64
2021/04/30 12:20:37;;;;;;;2.92;0.95;;;7.70;99.90;;;;;;4962476;28;20046;-63
2021/04/30 12:23:06;;;;;;;0.80;0.47;;;7.60;99.90;;;;;;4960936;28;20062;-63
2021/04/30 12:25:37;;;;;;;3.13;1.42;;;7.70;99.90;;;;;;4957469;28;20116;-64
2021/04/30 12:28:31;;;;;;;0.77;0.52;;;7.80;99.90;;;;;;4960259;28;20090;-66
2021/04/30 12:31:02;;;;;;;3.05;0.90;;;7.60;99.90;;;;;;4958325;28;20050;-64
2021/04/30 12:33:30;;;;;;;3.25;0.60;;;7.60;99.90;;;;;;4959192;28;20129;-65
2021/04/30 12:36:01;;;;;;;2.25;0.30;;;7.80;99.90;;;;;;4962395;28;20109;-64
2021/04/30 12:38:28;;;;;;;3.20;0.80;;;7.90;99.90;;;;;;4962521;28;20103;-63
2021/04/30 12:41:02;;;;;;;1.63;0.95;;;7.90;99.90;;;;;;4962096;28;20067;-65
2021/04/30 12:43:29;;;;;;;1.48;0.90;;;7.90;99.90;;;;;;4956526;28;20058;-63
2021/04/30 12:45:56;;;;;;;4.07;0.60;;;7.90;99.90;;;;;;4965490;28;20046;-66
2021/04/30 12:48:27;;;;;;;5.03;0.95;;;7.50;99.90;;;;;;4957907;28;20058;-63
2021/04/30 12:50:56;;;;;;;1.33;0.60;;;7.70;99.90;;;;;;4962980;28;20059;-63
2021/04/30 12:53:23;;;;;;;4.13;0.80;;;7.60;99.90;;;;;;4959206;28;20513;-64
2021/04/30 12:55:49;;;;;;;0.73;0.50;;;7.40;99.90;;;;;;4962103;28;20079;-64
2021/04/30 12:58:20;;;;;;;1.10;1.00;;;7.60;99.90;;;;;;4963485;28;20721;-65
2021/04/30 13:01:00;;;;;;;2.25;0.70;;;7.70;99.90;;;;;;4967073;28;20049;-66
2021/04/30 13:03:38;;;;;;;3.13;0.90;;;8.10;99.90;;;;;;4962892;28;20070;-63
2021/04/30 13:06:07;;;;;;;2.78;0.60;;;8.00;99.90;;;;;;4965072;28;20418;-65
2021/04/30 13:08:38;;;;;;;1.02;0.85;;;7.90;99.90;;;;;;4963671;28;20112;-64
2021/04/30 13:11:13;;;;;;;0.85;0.73;;;7.60;99.90;;;;;;4967032;28;20524;-64